sensor_id;sensor_type;location;lat;lon;timestamp;P1;P2;P0
82622;PMS5003;72291;55.002;-1.592;2023-09-07T00:00:50;50;47;
82622;PMS5003;72291;55.002;-1.592;2023-09-07T00:03:16;52;46;
82622;PMS5003;72291;55.002;-1.592;2023-09-07T00:05:42;50;47;
82622;PMS5003;72291;55.002;-1.592;2023-09-07T00:08:07;49;48;
82622;PMS5003;72291;55.002;-1.592;2023-09-07T00:10:32;52;45;
82622;PMS5003;72291;55.002;-1.592;2023-09-07T00:12:58;58;52;
82622;PMS5003;72291;55.002;-1.592;2023-09-07T00:15:24;46;44;
82622;PMS5003;72291;55.002;-1.592;2023-09-07T00:17:49;50;46;
82622;PMS5003;72291;55.002;-1.592;2023-09-07T00:20:15;44;40;
82622;PMS5003;72291;55.002;-1.592;2023-09-07T00:22:40;50;48;
82622;PMS5003;72291;55.002;-1.592;2023-09-07T00:25:07;48;45;
82622;PMS5003;72291;55.002;-1.592;2023-09-07T00:27:32;50;47;
82622;PMS5003;72291;55.002;-1.592;2023-09-07T00:29:57;59;53;
82622;PMS5003;72291;55.002;-1.592;2023-09-07T00:32:23;64;57;
82622;PMS5003;72291;55.002;-1.592;2023-09-07T00:34:49;57;53;
82622;PMS5003;72291;55.002;-1.592;2023-09-07T00:37:14;48;44;
82622;PMS5003;72291;55.002;-1.592;2023-09-07T00:39:39;48;45;
82622;PMS5003;72291;55.002;-1.592;2023-09-07T00:42:05;50;46;
82622;PMS5003;72291;55.002;-1.592;2023-09-07T00:44:30;62;57;
82622;PMS5003;72291;55.002;-1.592;2023-09-07T00:47:00;46;42;
82622;PMS5003;72291;55.002;-1.592;2023-09-07T00:49:22;58;50;
82622;PMS5003;72291;55.002;-1.592;2023-09-07T00:51:48;53;48;
82622;PMS5003;72291;55.002;-1.592;2023-09-07T00:54:12;50;48;
82622;PMS5003;72291;55.002;-1.592;2023-09-07T00:56:38;46;43;
82622;PMS5003;72291;55.002;-1.592;2023-09-07T00:59:03;58;52;
82622;PMS5003;72291;55.002;-1.592;2023-09-07T01:01:29;52;50;
82622;PMS5003;72291;55.002;-1.592;2023-09-07T01:03:54;52;48;
82622;PMS5003;72291;55.002;-1.592;2023-09-07T01:06:20;46;42;
82622;PMS5003;72291;55.002;-1.592;2023-09-07T01:08:46;56;53;
82622;PMS5003;72291;55.002;-1.592;2023-09-07T01:11:13;59;52;
82622;PMS5003;72291;55.002;-1.592;2023-09-07T01:13:35;56;53;
82622;PMS5003;72291;55.002;-1.592;2023-09-07T01:16:01;53;51;
82622;PMS5003;72291;55.002;-1.592;2023-09-07T01:18:26;50;47;
82622;PMS5003;72291;55.002;-1.592;2023-09-07T01:20:52;58;54;
82622;PMS5003;72291;55.002;-1.592;2023-09-07T01:23:18;58;51;
82622;PMS5003;72291;55.002;-1.592;2023-09-07T01:25:44;49;47;
82622;PMS5003;72291;55.002;-1.592;2023-09-07T01:28:09;50;47;
82622;PMS5003;72291;55.002;-1.592;2023-09-07T01:30:35;47;47;
82622;PMS5003;72291;55.002;-1.592;2023-09-07T01:32:59;49;48;
82622;PMS5003;72291;55.002;-1.592;2023-09-07T01:35:25;54;49;
82622;PMS5003;72291;55.002;-1.592;2023-09-07T01:37:51;52;47;
82622;PMS5003;72291;55.002;-1.592;2023-09-07T01:40:16;59;54;
82622;PMS5003;72291;55.002;-1.592;2023-09-07T01:42:42;53;47;
82622;PMS5003;72291;55.002;-1.592;2023-09-07T01:45:07;47;41;
82622;PMS5003;72291;55.002;-1.592;2023-09-07T01:47:32;51;49;
82622;PMS5003;72291;55.002;-1.592;2023-09-07T01:49:58;45;42;
82622;PMS5003;72291;55.002;-1.592;2023-09-07T01:52:23;51;46;
82622;PMS5003;72291;55.002;-1.592;2023-09-07T01:54:48;49;46;
82622;PMS5003;72291;55.002;-1.592;2023-09-07T01:57:13;47;44;
82622;PMS5003;72291;55.002;-1.592;2023-09-07T01:59:38;57;48;
82622;PMS5003;72291;55.002;-1.592;2023-09-07T02:02:04;50;46;
82622;PMS5003;72291;55.002;-1.592;2023-09-07T02:04:29;54;48;
82622;PMS5003;72291;55.002;-1.592;2023-09-07T02:06:55;53;49;
82622;PMS5003;72291;55.002;-1.592;2023-09-07T02:09:20;46;44;
82622;PMS5003;72291;55.002;-1.592;2023-09-07T02:11:45;55;52;
82622;PMS5003;72291;55.002;-1.592;2023-09-07T02:14:11;61;53;
82622;PMS5003;72291;55.002;-1.592;2023-09-07T02:16:36;60;56;
82622;PMS5003;72291;55.002;-1.592;2023-09-07T02:19:02;56;51;
82622;PMS5003;72291;55.002;-1.592;2023-09-07T02:21:27;56;52;
82622;PMS5003;72291;55.002;-1.592;2023-09-07T02:23:53;55;52;
82622;PMS5003;72291;55.002;-1.592;2023-09-07T02:26:18;59;54;
82622;PMS5003;72291;55.002;-1.592;2023-09-07T02:28:43;58;54;
82622;PMS5003;72291;55.002;-1.592;2023-09-07T02:31:08;54;49;
82622;PMS5003;72291;55.002;-1.592;2023-09-07T02:33:34;59;54;
82622;PMS5003;72291;55.002;-1.592;2023-09-07T02:35:59;49;48;
82622;PMS5003;72291;55.002;-1.592;2023-09-07T02:38:25;54;49;
82622;PMS5003;72291;55.002;-1.592;2023-09-07T02:40:50;63;53;
82622;PMS5003;72291;55.002;-1.592;2023-09-07T02:43:16;54;51;
82622;PMS5003;72291;55.002;-1.592;2023-09-07T02:45:41;50;49;
82622;PMS5003;72291;55.002;-1.592;2023-09-07T02:48:07;55;52;
82622;PMS5003;72291;55.002;-1.592;2023-09-07T02:50:33;56;54;
82622;PMS5003;72291;55.002;-1.592;2023-09-07T02:52:57;47;43;
82622;PMS5003;72291;55.002;-1.592;2023-09-07T02:55:23;45;43;
82622;PMS5003;72291;55.002;-1.592;2023-09-07T02:57:49;48;46;
82622;PMS5003;72291;55.002;-1.592;2023-09-07T03:00:14;51;47;
82622;PMS5003;72291;55.002;-1.592;2023-09-07T03:02:40;53;51;
82622;PMS5003;72291;55.002;-1.592;2023-09-07T03:05:05;57;52;
82622;PMS5003;72291;55.002;-1.592;2023-09-07T03:07:32;51;48;
82622;PMS5003;72291;55.002;-1.592;2023-09-07T03:09:56;41;39;
82622;PMS5003;72291;55.002;-1.592;2023-09-07T03:12:25;47;44;
82622;PMS5003;72291;55.002;-1.592;2023-09-07T03:14:47;53;48;
82622;PMS5003;72291;55.002;-1.592;2023-09-07T03:17:12;52;49;
82622;PMS5003;72291;55.002;-1.592;2023-09-07T03:24:28;50;47;
82622;PMS5003;72291;55.002;-1.592;2023-09-07T03:26:54;47;43;
82622;PMS5003;72291;55.002;-1.592;2023-09-07T03:34:11;46;45;
82622;PMS5003;72291;55.002;-1.592;2023-09-07T03:36:36;50;46;
82622;PMS5003;72291;55.002;-1.592;2023-09-07T03:39:02;47;43;
82622;PMS5003;72291;55.002;-1.592;2023-09-07T03:41:27;46;44;
82622;PMS5003;72291;55.002;-1.592;2023-09-07T03:43:52;48;41;
82622;PMS5003;72291;55.002;-1.592;2023-09-07T03:46:18;41;39;
82622;PMS5003;72291;55.002;-1.592;2023-09-07T03:48:43;51;46;
82622;PMS5003;72291;55.002;-1.592;2023-09-07T03:51:08;49;46;
82622;PMS5003;72291;55.002;-1.592;2023-09-07T03:53:34;41;41;
82622;PMS5003;72291;55.002;-1.592;2023-09-07T03:56:01;44;42;
82622;PMS5003;72291;55.002;-1.592;2023-09-07T03:58:24;43;39;
82622;PMS5003;72291;55.002;-1.592;2023-09-07T04:00:50;43;42;
82622;PMS5003;72291;55.002;-1.592;2023-09-07T04:03:15;42;40;
82622;PMS5003;72291;55.002;-1.592;2023-09-07T04:05:41;41;39;
82622;PMS5003;72291;55.002;-1.592;2023-09-07T04:08:06;46;42;
82622;PMS5003;72291;55.002;-1.592;2023-09-07T04:10:31;44;42;
82622;PMS5003;72291;55.002;-1.592;2023-09-07T04:12:57;48;44;
82622;PMS5003;72291;55.002;-1.592;2023-09-07T04:15:22;45;43;
82622;PMS5003;72291;55.002;-1.592;2023-09-07T04:17:49;48;46;
82622;PMS5003;72291;55.002;-1.592;2023-09-07T04:20:13;49;45;
82622;PMS5003;72291;55.002;-1.592;2023-09-07T04:22:39;49;46;
82622;PMS5003;72291;55.002;-1.592;2023-09-07T04:25:04;42;41;
82622;PMS5003;72291;55.002;-1.592;2023-09-07T04:27:30;60;51;
82622;PMS5003;72291;55.002;-1.592;2023-09-07T04:29:55;54;48;
82622;PMS5003;72291;55.002;-1.592;2023-09-07T04:32:20;45;44;
82622;PMS5003;72291;55.002;-1.592;2023-09-07T04:34:46;51;47;
82622;PMS5003;72291;55.002;-1.592;2023-09-07T04:37:11;51;49;
82622;PMS5003;72291;55.002;-1.592;2023-09-07T04:39:37;51;48;
82622;PMS5003;72291;55.002;-1.592;2023-09-07T04:42:02;54;49;
82622;PMS5003;72291;55.002;-1.592;2023-09-07T04:44:27;51;45;
82622;PMS5003;72291;55.002;-1.592;2023-09-07T04:46:54;48;44;
82622;PMS5003;72291;55.002;-1.592;2023-09-07T04:49:18;45;44;
82622;PMS5003;72291;55.002;-1.592;2023-09-07T04:51:43;40;40;
82622;PMS5003;72291;55.002;-1.592;2023-09-07T04:54:09;48;46;
82622;PMS5003;72291;55.002;-1.592;2023-09-07T04:56:34;47;44;
82622;PMS5003;72291;55.002;-1.592;2023-09-07T04:59:00;52;49;
82622;PMS5003;72291;55.002;-1.592;2023-09-07T05:01:25;48;45;
82622;PMS5003;72291;55.002;-1.592;2023-09-07T05:03:51;47;44;
82622;PMS5003;72291;55.002;-1.592;2023-09-07T05:06:16;44;42;
82622;PMS5003;72291;55.002;-1.592;2023-09-07T05:08:42;43;41;
82622;PMS5003;72291;55.002;-1.592;2023-09-07T05:11:08;47;44;
82622;PMS5003;72291;55.002;-1.592;2023-09-07T05:13:33;52;46;
82622;PMS5003;72291;55.002;-1.592;2023-09-07T05:15:59;46;43;
82622;PMS5003;72291;55.002;-1.592;2023-09-07T05:18:24;51;47;
82622;PMS5003;72291;55.002;-1.592;2023-09-07T05:20:49;49;44;
82622;PMS5003;72291;55.002;-1.592;2023-09-07T05:23:16;44;44;
82622;PMS5003;72291;55.002;-1.592;2023-09-07T05:25:43;54;49;
82622;PMS5003;72291;55.002;-1.592;2023-09-07T05:28:06;52;47;
82622;PMS5003;72291;55.002;-1.592;2023-09-07T05:30:31;48;45;
82622;PMS5003;72291;55.002;-1.592;2023-09-07T05:32:58;49;47;
82622;PMS5003;72291;55.002;-1.592;2023-09-07T05:35:22;45;41;
82622;PMS5003;72291;55.002;-1.592;2023-09-07T05:37:47;43;42;
82622;PMS5003;72291;55.002;-1.592;2023-09-07T05:40:12;43;41;
82622;PMS5003;72291;55.002;-1.592;2023-09-07T05:42:38;46;44;
82622;PMS5003;72291;55.002;-1.592;2023-09-07T05:45:04;49;47;
82622;PMS5003;72291;55.002;-1.592;2023-09-07T05:47:30;48;46;
82622;PMS5003;72291;55.002;-1.592;2023-09-07T05:49:55;47;46;
82622;PMS5003;72291;55.002;-1.592;2023-09-07T05:52:21;48;46;
82622;PMS5003;72291;55.002;-1.592;2023-09-07T05:54:46;46;44;
82622;PMS5003;72291;55.002;-1.592;2023-09-07T05:57:11;47;45;
82622;PMS5003;72291;55.002;-1.592;2023-09-07T05:59:37;45;43;
82622;PMS5003;72291;55.002;-1.592;2023-09-07T06:02:02;52;51;
82622;PMS5003;72291;55.002;-1.592;2023-09-07T06:04:28;53;50;
82622;PMS5003;72291;55.002;-1.592;2023-09-07T06:06:53;48;46;
82622;PMS5003;72291;55.002;-1.592;2023-09-07T06:09:18;51;47;
82622;PMS5003;72291;55.002;-1.592;2023-09-07T06:11:44;40;39;
82622;PMS5003;72291;55.002;-1.592;2023-09-07T06:14:10;48;46;
82622;PMS5003;72291;55.002;-1.592;2023-09-07T06:16:35;46;41;
82622;PMS5003;72291;55.002;-1.592;2023-09-07T06:19:01;54;47;
82622;PMS5003;72291;55.002;-1.592;2023-09-07T06:21:26;48;44;
82622;PMS5003;72291;55.002;-1.592;2023-09-07T06:23:52;48;46;
82622;PMS5003;72291;55.002;-1.592;2023-09-07T06:26:18;49;48;
82622;PMS5003;72291;55.002;-1.592;2023-09-07T06:28:43;48;46;
82622;PMS5003;72291;55.002;-1.592;2023-09-07T06:31:09;46;44;
82622;PMS5003;72291;55.002;-1.592;2023-09-07T06:33:34;54;51;
82622;PMS5003;72291;55.002;-1.592;2023-09-07T06:35:59;50;48;
82622;PMS5003;72291;55.002;-1.592;2023-09-07T06:38:25;51;50;
82622;PMS5003;72291;55.002;-1.592;2023-09-07T06:40:50;48;45;
82622;PMS5003;72291;55.002;-1.592;2023-09-07T06:43:15;47;42;
82622;PMS5003;72291;55.002;-1.592;2023-09-07T06:45:41;49;45;
82622;PMS5003;72291;55.002;-1.592;2023-09-07T06:48:06;50;49;
82622;PMS5003;72291;55.002;-1.592;2023-09-07T06:50:32;42;41;
82622;PMS5003;72291;55.002;-1.592;2023-09-07T06:52:58;48;45;
82622;PMS5003;72291;55.002;-1.592;2023-09-07T06:55:22;52;49;
82622;PMS5003;72291;55.002;-1.592;2023-09-07T06:57:48;47;47;
82622;PMS5003;72291;55.002;-1.592;2023-09-07T07:00:14;53;48;
82622;PMS5003;72291;55.002;-1.592;2023-09-07T07:02:39;58;51;
82622;PMS5003;72291;55.002;-1.592;2023-09-07T07:05:05;50;46;
82622;PMS5003;72291;55.002;-1.592;2023-09-07T07:10:00;52;48;
82622;PMS5003;72291;55.002;-1.592;2023-09-07T07:12:31;51;46;
82622;PMS5003;72291;55.002;-1.592;2023-09-07T07:14:46;51;48;
82622;PMS5003;72291;55.002;-1.592;2023-09-07T07:17:11;48;46;
82622;PMS5003;72291;55.002;-1.592;2023-09-07T07:22:02;54;51;
82622;PMS5003;72291;55.002;-1.592;2023-09-07T07:29:19;49;48;
82622;PMS5003;72291;55.002;-1.592;2023-09-07T07:34:09;54;50;
82622;PMS5003;72291;55.002;-1.592;2023-09-07T07:36:35;44;44;
82622;PMS5003;72291;55.002;-1.592;2023-09-07T07:39:00;53;51;
82622;PMS5003;72291;55.002;-1.592;2023-09-07T07:41:26;55;52;
82622;PMS5003;72291;55.002;-1.592;2023-09-07T07:43:50;61;57;
82622;PMS5003;72291;55.002;-1.592;2023-09-07T07:46:16;58;54;
82622;PMS5003;72291;55.002;-1.592;2023-09-07T07:48:41;63;59;
82622;PMS5003;72291;55.002;-1.592;2023-09-07T07:51:07;61;56;
82622;PMS5003;72291;55.002;-1.592;2023-09-07T07:53:33;62;54;
82622;PMS5003;72291;55.002;-1.592;2023-09-07T07:55:58;60;57;
82622;PMS5003;72291;55.002;-1.592;2023-09-07T07:58:23;52;52;
82622;PMS5003;72291;55.002;-1.592;2023-09-07T08:00:49;52;51;
82622;PMS5003;72291;55.002;-1.592;2023-09-07T08:03:14;53;49;
82622;PMS5003;72291;55.002;-1.592;2023-09-07T08:05:40;62;57;
82622;PMS5003;72291;55.002;-1.592;2023-09-07T08:08:05;66;58;
82622;PMS5003;72291;55.002;-1.592;2023-09-07T08:10:33;66;62;
82622;PMS5003;72291;55.002;-1.592;2023-09-07T08:12:56;55;52;
82622;PMS5003;72291;55.002;-1.592;2023-09-07T08:15:22;57;54;
82622;PMS5003;72291;55.002;-1.592;2023-09-07T08:17:47;66;57;
82622;PMS5003;72291;55.002;-1.592;2023-09-07T08:20:13;55;51;
82622;PMS5003;72291;55.002;-1.592;2023-09-07T08:22:38;59;58;
82622;PMS5003;72291;55.002;-1.592;2023-09-07T08:25:04;50;47;
82622;PMS5003;72291;55.002;-1.592;2023-09-07T08:27:29;65;60;
82622;PMS5003;72291;55.002;-1.592;2023-09-07T08:29:55;65;57;
82622;PMS5003;72291;55.002;-1.592;2023-09-07T08:32:20;57;54;
82622;PMS5003;72291;55.002;-1.592;2023-09-07T08:34:51;58;55;
82622;PMS5003;72291;55.002;-1.592;2023-09-07T08:37:12;64;57;
82622;PMS5003;72291;55.002;-1.592;2023-09-07T08:39:37;64;58;
82622;PMS5003;72291;55.002;-1.592;2023-09-07T08:42:03;66;58;
82622;PMS5003;72291;55.002;-1.592;2023-09-07T08:44:28;59;56;
82622;PMS5003;72291;55.002;-1.592;2023-09-07T08:46:54;61;53;
82622;PMS5003;72291;55.002;-1.592;2023-09-07T08:49:19;55;51;
82622;PMS5003;72291;55.002;-1.592;2023-09-07T08:51:45;58;55;
82622;PMS5003;72291;55.002;-1.592;2023-09-07T08:54:11;57;53;
82622;PMS5003;72291;55.002;-1.592;2023-09-07T08:56:36;55;52;
82622;PMS5003;72291;55.002;-1.592;2023-09-07T08:59:01;52;49;
82622;PMS5003;72291;55.002;-1.592;2023-09-07T09:01:26;55;53;
82622;PMS5003;72291;55.002;-1.592;2023-09-07T09:03:52;55;48;
82622;PMS5003;72291;55.002;-1.592;2023-09-07T09:06:18;58;55;
82622;PMS5003;72291;55.002;-1.592;2023-09-07T09:08:42;60;55;
82622;PMS5003;72291;55.002;-1.592;2023-09-07T09:11:07;56;53;
82622;PMS5003;72291;55.002;-1.592;2023-09-07T09:13:33;48;48;
82622;PMS5003;72291;55.002;-1.592;2023-09-07T09:15:59;58;53;
82622;PMS5003;72291;55.002;-1.592;2023-09-07T09:18:24;49;46;
82622;PMS5003;72291;55.002;-1.592;2023-09-07T09:20:50;52;47;
82622;PMS5003;72291;55.002;-1.592;2023-09-07T09:23:15;57;53;
82622;PMS5003;72291;55.002;-1.592;2023-09-07T09:25:41;54;47;
82622;PMS5003;72291;55.002;-1.592;2023-09-07T09:28:08;55;51;
82622;PMS5003;72291;55.002;-1.592;2023-09-07T09:30:31;52;46;
82622;PMS5003;72291;55.002;-1.592;2023-09-07T09:32:58;49;42;
82622;PMS5003;72291;55.002;-1.592;2023-09-07T09:35:22;40;37;
82622;PMS5003;72291;55.002;-1.592;2023-09-07T09:37:48;47;44;
82622;PMS5003;72291;55.002;-1.592;2023-09-07T09:40:13;50;46;
82622;PMS5003;72291;55.002;-1.592;2023-09-07T09:42:39;46;41;
82622;PMS5003;72291;55.002;-1.592;2023-09-07T09:45:04;43;41;
82622;PMS5003;72291;55.002;-1.592;2023-09-07T09:47:29;45;43;
82622;PMS5003;72291;55.002;-1.592;2023-09-07T09:49:54;46;44;
82622;PMS5003;72291;55.002;-1.592;2023-09-07T09:52:20;40;38;
82622;PMS5003;72291;55.002;-1.592;2023-09-07T09:54:45;40;39;
82622;PMS5003;72291;55.002;-1.592;2023-09-07T09:57:11;40;38;
82622;PMS5003;72291;55.002;-1.592;2023-09-07T09:59:37;38;34;
82622;PMS5003;72291;55.002;-1.592;2023-09-07T10:02:01;34;33;
82622;PMS5003;72291;55.002;-1.592;2023-09-07T10:04:26;38;36;
82622;PMS5003;72291;55.002;-1.592;2023-09-07T10:06:54;38;35;
82622;PMS5003;72291;55.002;-1.592;2023-09-07T10:09:17;32;30;
82622;PMS5003;72291;55.002;-1.592;2023-09-07T10:11:42;43;40;
82622;PMS5003;72291;55.002;-1.592;2023-09-07T10:14:07;37;34;
82622;PMS5003;72291;55.002;-1.592;2023-09-07T10:16:42;35;33;
82622;PMS5003;72291;55.002;-1.592;2023-09-07T10:18:58;38;36;
82622;PMS5003;72291;55.002;-1.592;2023-09-07T10:21:24;41;39;
82622;PMS5003;72291;55.002;-1.592;2023-09-07T10:23:49;42;39;
82622;PMS5003;72291;55.002;-1.592;2023-09-07T10:26:16;46;45;
82622;PMS5003;72291;55.002;-1.592;2023-09-07T10:28:40;38;38;
82622;PMS5003;72291;55.002;-1.592;2023-09-07T10:31:06;38;37;
82622;PMS5003;72291;55.002;-1.592;2023-09-07T10:33:31;43;41;
82622;PMS5003;72291;55.002;-1.592;2023-09-07T10:35:57;38;34;
82622;PMS5003;72291;55.002;-1.592;2023-09-07T10:38:22;39;35;
82622;PMS5003;72291;55.002;-1.592;2023-09-07T10:40:47;38;36;
82622;PMS5003;72291;55.002;-1.592;2023-09-07T10:43:13;39;36;
82622;PMS5003;72291;55.002;-1.592;2023-09-07T10:45:38;45;44;
82622;PMS5003;72291;55.002;-1.592;2023-09-07T10:48:03;40;39;
82622;PMS5003;72291;55.002;-1.592;2023-09-07T10:52:54;44;39;
82622;PMS5003;72291;55.002;-1.592;2023-09-07T10:55:20;41;39;
82622;PMS5003;72291;55.002;-1.592;2023-09-07T10:57:45;38;35;
82622;PMS5003;72291;55.002;-1.592;2023-09-07T11:00:10;36;34;
82622;PMS5003;72291;55.002;-1.592;2023-09-07T11:02:36;37;36;
82622;PMS5003;72291;55.002;-1.592;2023-09-07T11:05:01;34;32;
82622;PMS5003;72291;55.002;-1.592;2023-09-07T11:07:26;32;30;
82622;PMS5003;72291;55.002;-1.592;2023-09-07T11:09:52;29;27;
82622;PMS5003;72291;55.002;-1.592;2023-09-07T11:12:22;30;28;
82622;PMS5003;72291;55.002;-1.592;2023-09-07T11:14:42;24;24;
82622;PMS5003;72291;55.002;-1.592;2023-09-07T11:41:02;26;26;
82622;PMS5003;72291;55.002;-1.592;2023-09-07T11:45:53;23;22;
82622;PMS5003;72291;55.002;-1.592;2023-09-07T11:48:18;22;20;
82622;PMS5003;72291;55.002;-1.592;2023-09-07T11:50:43;23;22;
82622;PMS5003;72291;55.002;-1.592;2023-09-07T11:53:09;26;25;
82622;PMS5003;72291;55.002;-1.592;2023-09-07T11:55:35;24;22;
82622;PMS5003;72291;55.002;-1.592;2023-09-07T11:58:00;28;27;
82622;PMS5003;72291;55.002;-1.592;2023-09-07T12:00:25;28;24;
82622;PMS5003;72291;55.002;-1.592;2023-09-07T12:02:50;25;25;
82622;PMS5003;72291;55.002;-1.592;2023-09-07T12:05:16;30;28;
82622;PMS5003;72291;55.002;-1.592;2023-09-07T12:07:41;30;30;
82622;PMS5003;72291;55.002;-1.592;2023-09-07T12:10:07;28;25;
82622;PMS5003;72291;55.002;-1.592;2023-09-07T12:12:32;19;19;
82622;PMS5003;72291;55.002;-1.592;2023-09-07T12:14:57;25;22;
82622;PMS5003;72291;55.002;-1.592;2023-09-07T12:17:23;28;27;
82622;PMS5003;72291;55.002;-1.592;2023-09-07T12:19:49;20;20;
82622;PMS5003;72291;55.002;-1.592;2023-09-07T12:22:14;22;22;
82622;PMS5003;72291;55.002;-1.592;2023-09-07T12:24:39;24;24;
82622;PMS5003;72291;55.002;-1.592;2023-09-07T12:27:04;25;22;
82622;PMS5003;72291;55.002;-1.592;2023-09-07T12:29:29;21;21;
82622;PMS5003;72291;55.002;-1.592;2023-09-07T12:31:54;24;23;
82622;PMS5003;72291;55.002;-1.592;2023-09-07T12:34:20;23;22;
82622;PMS5003;72291;55.002;-1.592;2023-09-07T12:36:45;24;23;
82622;PMS5003;72291;55.002;-1.592;2023-09-07T12:39:11;22;22;
82622;PMS5003;72291;55.002;-1.592;2023-09-07T12:41:36;27;24;
82622;PMS5003;72291;55.002;-1.592;2023-09-07T12:44:01;30;29;
82622;PMS5003;72291;55.002;-1.592;2023-09-07T12:46:27;26;25;
82622;PMS5003;72291;55.002;-1.592;2023-09-07T12:48:52;33;31;
82622;PMS5003;72291;55.002;-1.592;2023-09-07T12:51:18;32;32;
82622;PMS5003;72291;55.002;-1.592;2023-09-07T12:53:43;35;33;
82622;PMS5003;72291;55.002;-1.592;2023-09-07T12:56:09;30;30;
82622;PMS5003;72291;55.002;-1.592;2023-09-07T12:58:34;31;30;
82622;PMS5003;72291;55.002;-1.592;2023-09-07T13:00:59;30;26;
82622;PMS5003;72291;55.002;-1.592;2023-09-07T13:03:24;31;30;
82622;PMS5003;72291;55.002;-1.592;2023-09-07T13:05:50;29;27;
82622;PMS5003;72291;55.002;-1.592;2023-09-07T13:08:15;28;25;
82622;PMS5003;72291;55.002;-1.592;2023-09-07T13:10:40;30;28;
82622;PMS5003;72291;55.002;-1.592;2023-09-07T13:13:06;23;22;
82622;PMS5003;72291;55.002;-1.592;2023-09-07T13:15:31;24;24;
82622;PMS5003;72291;55.002;-1.592;2023-09-07T13:17:56;23;23;
82622;PMS5003;72291;55.002;-1.592;2023-09-07T13:20:22;28;27;
82622;PMS5003;72291;55.002;-1.592;2023-09-07T13:22:47;23;21;
82622;PMS5003;72291;55.002;-1.592;2023-09-07T13:25:12;18;18;
82622;PMS5003;72291;55.002;-1.592;2023-09-07T13:27:38;15;15;
82622;PMS5003;72291;55.002;-1.592;2023-09-07T13:30:04;15;15;
82622;PMS5003;72291;55.002;-1.592;2023-09-07T13:32:28;17;16;
82622;PMS5003;72291;55.002;-1.592;2023-09-07T13:34:54;13;13;
82622;PMS5003;72291;55.002;-1.592;2023-09-07T13:37:19;12;12;
82622;PMS5003;72291;55.002;-1.592;2023-09-07T13:39:44;10;10;
82622;PMS5003;72291;55.002;-1.592;2023-09-07T13:42:09;13;12;
82622;PMS5003;72291;55.002;-1.592;2023-09-07T13:44:34;12;12;
82622;PMS5003;72291;55.002;-1.592;2023-09-07T13:47:00;11;11;
82622;PMS5003;72291;55.002;-1.592;2023-09-07T13:49:25;10;10;
82622;PMS5003;72291;55.002;-1.592;2023-09-07T13:51:50;14;13;
82622;PMS5003;72291;55.002;-1.592;2023-09-07T13:54:16;15;14;
82622;PMS5003;72291;55.002;-1.592;2023-09-07T13:56:40;12;12;
82622;PMS5003;72291;55.002;-1.592;2023-09-07T13:59:06;13;13;
82622;PMS5003;72291;55.002;-1.592;2023-09-07T14:01:31;13;13;
82622;PMS5003;72291;55.002;-1.592;2023-09-07T14:03:56;12;12;
82622;PMS5003;72291;55.002;-1.592;2023-09-07T14:06:21;11;10;
82622;PMS5003;72291;55.002;-1.592;2023-09-07T14:08:46;11;11;
82622;PMS5003;72291;55.002;-1.592;2023-09-07T14:11:11;11;11;
82622;PMS5003;72291;55.002;-1.592;2023-09-07T14:13:36;10;10;
82622;PMS5003;72291;55.002;-1.592;2023-09-07T14:16:01;12;12;
82622;PMS5003;72291;55.002;-1.592;2023-09-07T14:18:26;13;13;
82622;PMS5003;72291;55.002;-1.592;2023-09-07T14:20:51;10;9;
82622;PMS5003;72291;55.002;-1.592;2023-09-07T14:23:16;14;14;
82622;PMS5003;72291;55.002;-1.592;2023-09-07T14:25:41;14;13;
82622;PMS5003;72291;55.002;-1.592;2023-09-07T14:28:06;12;11;
82622;PMS5003;72291;55.002;-1.592;2023-09-07T14:30:31;13;13;
82622;PMS5003;72291;55.002;-1.592;2023-09-07T14:32:56;11;11;
82622;PMS5003;72291;55.002;-1.592;2023-09-07T14:35:21;13;12;
82622;PMS5003;72291;55.002;-1.592;2023-09-07T14:37:46;10;10;
82622;PMS5003;72291;55.002;-1.592;2023-09-07T14:40:11;10;9;
82622;PMS5003;72291;55.002;-1.592;2023-09-07T14:42:37;12;11;
82622;PMS5003;72291;55.002;-1.592;2023-09-07T14:45:02;8;8;
82622;PMS5003;72291;55.002;-1.592;2023-09-07T14:47:28;6;6;
82622;PMS5003;72291;55.002;-1.592;2023-09-07T14:49:52;11;10;
82622;PMS5003;72291;55.002;-1.592;2023-09-07T14:52:17;9;9;
82622;PMS5003;72291;55.002;-1.592;2023-09-07T14:54:42;7;7;
82622;PMS5003;72291;55.002;-1.592;2023-09-07T14:57:07;11;10;
82622;PMS5003;72291;55.002;-1.592;2023-09-07T14:59:32;8;8;
82622;PMS5003;72291;55.002;-1.592;2023-09-07T15:01:57;9;9;
82622;PMS5003;72291;55.002;-1.592;2023-09-07T15:04:22;10;10;
82622;PMS5003;72291;55.002;-1.592;2023-09-07T15:06:48;10;9;
82622;PMS5003;72291;55.002;-1.592;2023-09-07T15:09:13;8;8;
82622;PMS5003;72291;55.002;-1.592;2023-09-07T15:11:38;11;11;
82622;PMS5003;72291;55.002;-1.592;2023-09-07T15:14:03;10;10;
82622;PMS5003;72291;55.002;-1.592;2023-09-07T15:16:28;8;8;
82622;PMS5003;72291;55.002;-1.592;2023-09-07T15:18:53;7;7;
82622;PMS5003;72291;55.002;-1.592;2023-09-07T15:21:23;8;8;
82622;PMS5003;72291;55.002;-1.592;2023-09-07T15:23:48;8;8;
82622;PMS5003;72291;55.002;-1.592;2023-09-07T15:26:08;8;8;
82622;PMS5003;72291;55.002;-1.592;2023-09-07T15:28:33;8;8;
82622;PMS5003;72291;55.002;-1.592;2023-09-07T15:30:58;10;9;
82622;PMS5003;72291;55.002;-1.592;2023-09-07T15:43:21;5;5;
82622;PMS5003;72291;55.002;-1.592;2023-09-07T15:45:44;11;9;
82622;PMS5003;72291;55.002;-1.592;2023-09-07T15:48:09;8;8;
82622;PMS5003;72291;55.002;-1.592;2023-09-07T15:57:49;13;13;
82622;PMS5003;72291;55.002;-1.592;2023-09-07T16:00:14;11;11;
82622;PMS5003;72291;55.002;-1.592;2023-09-07T16:05:05;9;9;
82622;PMS5003;72291;55.002;-1.592;2023-09-07T16:07:30;10;10;
82622;PMS5003;72291;55.002;-1.592;2023-09-07T16:09:55;10;10;
82622;PMS5003;72291;55.002;-1.592;2023-09-07T16:12:20;9;9;
82622;PMS5003;72291;55.002;-1.592;2023-09-07T16:14:46;11;11;
82622;PMS5003;72291;55.002;-1.592;2023-09-07T16:17:11;10;10;
82622;PMS5003;72291;55.002;-1.592;2023-09-07T16:20:31;8;8;
82622;PMS5003;72291;55.002;-1.592;2023-09-07T16:22:56;13;13;
82622;PMS5003;72291;55.002;-1.592;2023-09-07T16:25:21;10;9;
82622;PMS5003;72291;55.002;-1.592;2023-09-07T16:27:46;11;11;
82622;PMS5003;72291;55.002;-1.592;2023-09-07T16:30:12;12;11;
82622;PMS5003;72291;55.002;-1.592;2023-09-07T16:32:37;8;8;
82622;PMS5003;72291;55.002;-1.592;2023-09-07T16:35:01;7;7;
82622;PMS5003;72291;55.002;-1.592;2023-09-07T16:37:27;8;7;
82622;PMS5003;72291;55.002;-1.592;2023-09-07T16:39:52;7;7;
82622;PMS5003;72291;55.002;-1.592;2023-09-07T16:42:17;10;10;
82622;PMS5003;72291;55.002;-1.592;2023-09-07T16:44:42;8;8;
82622;PMS5003;72291;55.002;-1.592;2023-09-07T16:47:07;6;6;
82622;PMS5003;72291;55.002;-1.592;2023-09-07T16:49:32;9;8;
82622;PMS5003;72291;55.002;-1.592;2023-09-07T16:51:57;9;8;
82622;PMS5003;72291;55.002;-1.592;2023-09-07T16:54:22;11;9;
82622;PMS5003;72291;55.002;-1.592;2023-09-07T16:56:47;10;10;
82622;PMS5003;72291;55.002;-1.592;2023-09-07T16:59:12;11;11;
82622;PMS5003;72291;55.002;-1.592;2023-09-07T17:01:37;10;8;